createdAt,value
2022-12-22T00:02:18.301Z,9.83
2022-12-22T00:05:03.420Z,9.94
2022-12-22T00:07:48.774Z,10.00
2022-12-22T00:10:34.030Z,10.10
2022-12-22T00:13:19.273Z,10.00
2022-12-22T00:16:04.448Z,10.18
2022-12-22T00:18:49.661Z,10.40
2022-12-22T00:21:34.901Z,10.46
2022-12-22T00:24:20.077Z,10.58
2022-12-22T00:27:05.247Z,10.69
2022-12-22T00:29:53.983Z,10.52
2022-12-22T00:32:39.097Z,10.60
2022-12-22T00:35:24.415Z,10.60
2022-12-22T00:38:09.677Z,10.60
2022-12-22T00:40:54.979Z,10.50
2022-12-22T00:43:40.237Z,10.53
2022-12-22T00:46:27.536Z,10.58
2022-12-22T00:49:12.869Z,10.45
2022-12-22T00:51:58.112Z,10.45
2022-12-22T00:54:43.340Z,10.45
2022-12-22T00:57:32.598Z,10.40
2022-12-22T01:00:17.860Z,10.44
2022-12-22T01:03:03.245Z,10.22
2022-12-22T01:05:48.477Z,10.20
2022-12-22T01:08:33.979Z,9.82
2022-12-22T01:11:19.012Z,9.90
2022-12-22T01:14:04.278Z,9.80
2022-12-22T01:16:49.503Z,9.73
2022-12-22T01:19:34.922Z,9.76
2022-12-22T01:22:20.851Z,9.81
2022-12-22T01:25:06.173Z,9.77
2022-12-22T01:27:51.323Z,9.88
2022-12-22T01:30:36.572Z,9.82
2022-12-22T01:33:21.935Z,9.97
2022-12-22T01:36:07.467Z,9.80
2022-12-22T01:38:52.697Z,9.89
2022-12-22T01:41:38.375Z,9.80
2022-12-22T01:44:30.340Z,9.90
2022-12-22T01:47:35.531Z,9.83
2022-12-22T01:50:20.764Z,9.86
2022-12-22T01:53:06.274Z,9.84
2022-12-22T01:55:51.673Z,9.73
2022-12-22T01:58:40.439Z,9.81
2022-12-22T02:01:25.817Z,9.75
2022-12-22T02:04:11.115Z,9.69
2022-12-22T02:07:00.246Z,9.87
2022-12-22T02:09:51.731Z,9.80
2022-12-22T02:12:40.129Z,9.81
2022-12-22T02:15:45.582Z,9.93
2022-12-22T02:18:32.626Z,9.95
2022-12-22T02:21:22.069Z,9.91
2022-12-22T02:24:24.683Z,9.85
2022-12-22T02:27:10.385Z,9.85
2022-12-22T02:29:58.393Z,9.79
2022-12-22T02:32:43.606Z,9.82
2022-12-22T02:35:32.755Z,9.87
2022-12-22T02:38:20.701Z,9.86
2022-12-22T02:41:16.582Z,9.89
2022-12-22T02:44:21.099Z,9.87
2022-12-22T02:47:09.528Z,9.86
2022-12-22T02:49:58.375Z,10.00
2022-12-22T02:52:46.073Z,10.05
2022-12-22T02:55:31.425Z,9.99
2022-12-22T02:58:17.740Z,9.94
2022-12-22T03:01:03.106Z,10.16
2022-12-22T03:03:48.642Z,10.23
2022-12-22T03:06:33.879Z,10.29
2022-12-22T03:09:19.231Z,10.08
2022-12-22T03:12:04.506Z,10.12
2022-12-22T03:14:49.536Z,10.18
2022-12-22T03:17:34.827Z,10.17
2022-12-22T03:20:20.075Z,10.17
2022-12-22T03:23:05.510Z,10.24
2022-12-22T03:25:50.698Z,10.33
2022-12-22T03:28:17.256Z,10.29
2022-12-22T03:30:43.781Z,10.24
2022-12-22T03:33:10.303Z,10.25
2022-12-22T03:35:36.832Z,10.25
2022-12-22T03:38:03.779Z,10.17
2022-12-22T03:40:31.160Z,10.09
2022-12-22T03:43:16.243Z,10.14
2022-12-22T03:46:01.598Z,10.19
2022-12-22T03:48:28.135Z,10.24
2022-12-22T03:50:54.664Z,10.33
2022-12-22T03:53:21.228Z,10.28
2022-12-22T03:55:47.745Z,10.29
2022-12-22T03:58:14.270Z,10.31
2022-12-22T04:00:40.812Z,10.38
2022-12-22T04:03:07.641Z,10.29
2022-12-22T04:05:34.206Z,10.37
2022-12-22T04:08:00.760Z,10.40
2022-12-22T04:10:46.074Z,10.45
2022-12-22T04:13:12.571Z,10.51
2022-12-22T04:15:39.082Z,10.49
2022-12-22T04:18:05.732Z,10.58
2022-12-22T04:20:32.375Z,10.55
2022-12-22T04:22:58.864Z,10.55
2022-12-22T04:25:25.800Z,10.50
2022-12-22T04:27:52.314Z,10.52
2022-12-22T04:30:18.942Z,10.55
2022-12-22T04:32:45.479Z,10.66
2022-12-22T04:35:11.994Z,10.60
2022-12-22T04:37:38.568Z,10.49
2022-12-22T04:40:05.406Z,10.49
2022-12-22T04:42:31.909Z,10.47
2022-12-22T04:44:58.464Z,10.43
2022-12-22T04:47:24.963Z,10.54
2022-12-22T04:49:51.459Z,10.44
2022-12-22T04:52:18.055Z,10.54
2022-12-22T04:54:44.576Z,10.44
2022-12-22T04:57:11.289Z,10.51
2022-12-22T04:59:37.884Z,10.52
2022-12-22T05:02:04.504Z,10.53
2022-12-22T05:04:31.198Z,10.59
2022-12-22T05:06:57.729Z,10.53
2022-12-22T05:09:24.511Z,10.35
2022-12-22T05:11:51.038Z,10.44
2022-12-22T05:14:17.608Z,10.51
2022-12-22T05:16:44.223Z,10.59
2022-12-22T05:19:10.800Z,10.64
2022-12-22T05:21:37.325Z,10.61
2022-12-22T05:24:03.945Z,10.60
2022-12-22T05:26:30.498Z,10.59
2022-12-22T05:28:57.053Z,10.63
2022-12-22T05:31:24.187Z,10.71
2022-12-22T05:33:50.866Z,10.60
2022-12-22T05:36:17.570Z,10.62
2022-12-22T05:38:46.785Z,10.63
2022-12-22T05:41:13.655Z,10.68
2022-12-22T05:43:40.184Z,10.83
2022-12-22T05:46:07.824Z,10.74
2022-12-22T05:48:38.654Z,10.82
2022-12-22T05:51:06.620Z,10.92
2022-12-22T05:53:33.154Z,10.89
2022-12-22T05:55:59.700Z,10.83
2022-12-22T05:58:26.238Z,10.87
2022-12-22T06:00:55.663Z,10.89
2022-12-22T06:03:22.322Z,10.91
2022-12-22T06:05:52.137Z,10.85
2022-12-22T06:08:18.801Z,10.66
2022-12-22T06:10:45.295Z,10.67
2022-12-22T06:13:11.817Z,10.62
2022-12-22T06:15:38.434Z,10.59
2022-12-22T06:18:04.996Z,10.53
2022-12-22T06:20:31.530Z,10.37
2022-12-22T06:22:58.091Z,10.38
2022-12-22T06:25:24.619Z,10.36
2022-12-22T06:27:51.136Z,10.41
2022-12-22T06:30:17.697Z,10.41
2022-12-22T06:32:44.502Z,10.31
2022-12-22T06:35:11.297Z,10.26
2022-12-22T06:37:37.864Z,10.37
2022-12-22T06:40:04.746Z,10.43
2022-12-22T06:42:50.101Z,10.47
2022-12-22T06:45:16.664Z,10.51
2022-12-22T06:47:43.325Z,10.76
2022-12-22T06:50:10.120Z,10.68
2022-12-22T06:52:36.642Z,10.76
2022-12-22T06:55:03.299Z,10.72
2022-12-22T06:57:29.817Z,10.83
2022-12-22T07:00:06.488Z,10.95
2022-12-22T07:02:33.182Z,10.88
2022-12-22T07:04:59.854Z,10.83
2022-12-22T07:07:26.448Z,10.63
2022-12-22T07:09:52.968Z,10.68
2022-12-22T07:12:19.593Z,10.72
2022-12-22T07:14:46.125Z,10.81
2022-12-22T07:17:12.735Z,10.79
2022-12-22T07:19:39.241Z,10.80
2022-12-22T07:22:05.799Z,10.90
2022-12-22T07:24:32.346Z,10.85
2022-12-22T07:26:58.986Z,10.88
2022-12-22T07:29:25.583Z,10.75
2022-12-22T07:31:52.357Z,10.86
2022-12-22T07:34:19.008Z,10.73
2022-12-22T07:36:45.492Z,10.89
2022-12-22T07:39:12.464Z,10.85
2022-12-22T07:41:57.502Z,10.90
2022-12-22T07:44:24.464Z,10.91
2022-12-22T07:46:51.046Z,11.04
2022-12-22T07:49:36.405Z,11.01
2022-12-22T07:52:02.986Z,10.94
2022-12-22T07:54:29.623Z,10.94
2022-12-22T07:56:56.306Z,10.90
2022-12-22T07:59:23.028Z,10.96
2022-12-22T08:01:49.772Z,10.90
2022-12-22T08:04:16.440Z,10.92
2022-12-22T08:06:43.014Z,11.02
2022-12-22T08:09:19.669Z,10.92
2022-12-22T08:11:46.329Z,10.85
2022-12-22T08:14:12.877Z,10.78
2022-12-22T08:16:39.500Z,10.80
2022-12-22T08:19:06.086Z,10.88
2022-12-22T08:21:32.621Z,10.99
2022-12-22T08:23:59.184Z,11.08
2022-12-22T08:26:27.693Z,11.04
2022-12-22T08:28:59.470Z,11.18
2022-12-22T08:31:26.541Z,11.17
2022-12-22T08:33:53.335Z,11.28
2022-12-22T08:36:19.865Z,11.37
2022-12-22T08:38:46.393Z,11.19
2022-12-22T08:41:13.062Z,11.27
2022-12-22T08:43:39.633Z,11.15
2022-12-22T08:46:06.160Z,11.34
2022-12-22T08:48:32.720Z,11.32
2022-12-22T08:50:59.246Z,11.37
2022-12-22T08:54:02.470Z,11.33
2022-12-22T08:56:12.316Z,11.25
2022-12-22T08:58:40.256Z,11.49
2022-12-22T09:01:06.975Z,11.52
2022-12-22T09:03:33.601Z,11.38
2022-12-22T09:06:01.129Z,11.40
2022-12-22T09:08:27.655Z,11.51
2022-12-22T09:10:54.313Z,11.57
2022-12-22T09:13:20.967Z,11.59
2022-12-22T09:15:47.570Z,11.56
2022-12-22T09:18:17.132Z,11.67
2022-12-22T09:20:43.760Z,11.76
2022-12-22T09:23:10.332Z,11.84
2022-12-22T09:25:37.080Z,11.85
2022-12-22T09:28:06.853Z,11.64
2022-12-22T09:30:33.391Z,11.33
2022-12-22T09:33:00.014Z,10.93
2022-12-22T09:35:26.553Z,10.70
2022-12-22T09:37:55.639Z,10.65
2022-12-22T09:40:22.345Z,10.62
2022-12-22T09:42:48.910Z,10.68
2022-12-22T09:45:20.125Z,10.66
2022-12-22T09:47:53.888Z,10.59
2022-12-22T09:50:25.222Z,10.72
2022-12-22T09:52:56.238Z,10.61
2022-12-22T09:55:25.852Z,10.72
2022-12-22T09:57:55.590Z,10.67
2022-12-22T10:00:23.959Z,10.71
2022-12-22T10:03:01.886Z,10.71
2022-12-22T10:05:38.570Z,10.67
2022-12-22T10:08:09.957Z,10.62
2022-12-22T10:10:36.495Z,10.67
2022-12-22T10:13:03.884Z,10.62
2022-12-22T10:15:40.393Z,10.65
2022-12-22T10:18:17.039Z,10.66
2022-12-22T10:20:45.794Z,10.77
2022-12-22T10:23:17.715Z,10.76
2022-12-22T10:28:48.035Z,10.91
2022-12-22T10:31:24.753Z,10.81
2022-12-22T10:33:53.084Z,10.83
2022-12-22T10:36:27.049Z,10.76
2022-12-22T10:39:07.395Z,10.77
2022-12-22T10:41:40.793Z,10.72
2022-12-22T10:44:12.006Z,10.70
2022-12-22T10:46:39.863Z,10.82
2022-12-22T10:49:11.041Z,10.64
2022-12-22T10:51:37.685Z,10.85
2022-12-22T10:54:04.287Z,10.76
2022-12-22T10:56:31.796Z,10.86
2022-12-22T10:59:01.456Z,10.89
2022-12-22T11:01:32.033Z,10.83
2022-12-22T11:03:59.249Z,10.76
2022-12-22T11:06:25.778Z,10.78
2022-12-22T11:08:52.419Z,10.94
2022-12-22T11:11:38.031Z,10.99
2022-12-22T11:14:23.273Z,10.98
2022-12-22T11:16:56.060Z,10.99
2022-12-22T11:19:25.790Z,11.30
2022-12-22T11:22:04.531Z,11.31
2022-12-22T11:24:31.070Z,11.23
2022-12-22T11:27:16.550Z,11.40
2022-12-22T11:29:43.149Z,11.12
2022-12-22T11:32:09.762Z,11.28
2022-12-22T11:35:08.438Z,11.15
2022-12-22T11:37:35.037Z,11.29
2022-12-22T11:40:13.068Z,11.44
2022-12-22T11:42:51.912Z,11.38
2022-12-22T11:45:18.442Z,11.49
2022-12-22T11:47:54.932Z,11.59
2022-12-22T11:50:58.272Z,11.63
2022-12-22T11:53:24.920Z,11.66
2022-12-22T11:55:54.577Z,11.59
2022-12-22T11:58:25.469Z,11.72
2022-12-22T12:01:16.207Z,11.83
2022-12-22T12:03:48.992Z,11.84
2022-12-22T12:06:26.686Z,11.67
2022-12-22T12:09:12.705Z,11.89
2022-12-22T12:11:41.268Z,11.76
2022-12-22T12:14:11.008Z,11.92
2022-12-22T12:16:44.496Z,11.87
2022-12-22T12:19:51.309Z,11.65
2022-12-22T12:22:26.867Z,11.81
2022-12-22T12:25:01.480Z,11.86
2022-12-22T12:27:40.030Z,12.05
2022-12-22T12:30:36.858Z,12.18
2022-12-22T12:33:08.410Z,12.36
2022-12-22T12:35:36.525Z,12.60
2022-12-22T12:38:06.194Z,12.50
2022-12-22T12:40:38.387Z,12.71
2022-12-22T12:43:04.954Z,12.61
2022-12-22T12:45:36.620Z,12.64
2022-12-22T12:48:26.395Z,12.45
2022-12-22T12:50:56.140Z,12.18
2022-12-22T12:53:23.220Z,12.41
2022-12-22T12:55:49.668Z,12.56
2022-12-22T12:58:34.661Z,12.45
2022-12-22T13:01:02.171Z,12.56
2022-12-22T13:04:02.021Z,12.47
2022-12-22T13:06:34.014Z,12.50
2022-12-22T13:09:39.800Z,12.52
2022-12-22T13:12:11.671Z,12.08
2022-12-22T13:14:58.143Z,12.15
2022-12-22T13:17:33.611Z,12.10
2022-12-22T13:20:00.559Z,12.25
2022-12-22T13:22:27.443Z,12.23
2022-12-22T13:24:54.272Z,12.07
2022-12-22T13:27:22.555Z,12.07
2022-12-22T13:29:49.238Z,12.11
2022-12-22T13:32:17.511Z,11.97
2022-12-22T13:35:29.067Z,12.00
2022-12-22T13:37:42.247Z,12.06
2022-12-22T13:40:08.933Z,11.97
2022-12-22T13:42:39.835Z,11.95
2022-12-22T13:45:07.649Z,11.92
2022-12-22T13:47:34.196Z,12.02
2022-12-22T13:50:09.602Z,11.91
2022-12-22T13:52:36.675Z,12.25
2022-12-22T13:55:03.211Z,12.20
2022-12-22T13:57:29.700Z,12.28
2022-12-22T13:59:56.264Z,12.33
2022-12-22T14:02:23.103Z,12.02
2022-12-22T14:05:09.194Z,12.04
2022-12-22T14:07:36.041Z,12.08
2022-12-22T14:10:02.615Z,12.22
2022-12-22T14:12:32.783Z,12.12
2022-12-22T14:15:01.347Z,11.92
2022-12-22T14:17:29.087Z,11.89
2022-12-22T14:20:02.104Z,11.95
2022-12-22T14:22:28.883Z,11.96
2022-12-22T14:25:02.494Z,11.98
2022-12-22T14:27:33.014Z,12.10
2022-12-22T14:30:00.344Z,11.89
2022-12-22T14:32:40.961Z,11.97
2022-12-22T14:35:15.458Z,12.21
2022-12-22T14:37:42.139Z,12.53
2022-12-22T14:40:15.030Z,12.02
2022-12-22T14:42:44.752Z,12.06
2022-12-22T14:45:14.956Z,12.14
2022-12-22T14:47:41.464Z,12.27
2022-12-22T14:50:16.540Z,12.15
2022-12-22T14:52:46.063Z,11.95
2022-12-22T14:55:31.832Z,11.91
2022-12-22T14:57:59.633Z,11.93
2022-12-22T15:00:52.890Z,11.98
2022-12-22T15:03:26.646Z,11.89
2022-12-22T15:05:53.383Z,11.91
2022-12-22T15:08:39.078Z,11.89
2022-12-22T15:11:11.375Z,11.88
2022-12-22T15:13:38.127Z,12.02
2022-12-22T15:16:04.762Z,12.07
2022-12-22T15:18:31.355Z,11.99
2022-12-22T15:20:57.982Z,11.97
2022-12-22T15:23:24.510Z,11.87
2022-12-22T15:25:51.261Z,11.85
2022-12-22T15:28:17.863Z,11.82
2022-12-22T15:30:56.035Z,11.83
2022-12-22T15:33:22.737Z,11.95
2022-12-22T15:35:50.222Z,12.03
2022-12-22T15:38:17.927Z,11.95
2022-12-22T15:40:44.501Z,11.91
2022-12-22T15:43:28.855Z,11.84
2022-12-22T15:45:58.258Z,11.76
2022-12-22T15:48:35.036Z,11.72
2022-12-22T15:51:02.406Z,11.67
2022-12-22T15:53:29.055Z,11.67
2022-12-22T15:55:55.830Z,11.50
2022-12-22T15:58:23.059Z,11.56
2022-12-22T16:00:49.716Z,11.54
2022-12-22T16:03:16.453Z,11.49
2022-12-22T16:05:43.195Z,11.42
2022-12-22T16:08:17.646Z,11.37
2022-12-22T16:10:44.790Z,11.38
2022-12-22T16:13:12.125Z,11.43
2022-12-22T16:15:38.861Z,11.37
2022-12-22T16:18:05.832Z,11.27
2022-12-22T16:20:37.809Z,11.28
2022-12-22T16:23:05.089Z,11.30
2022-12-22T16:25:34.173Z,11.28
2022-12-22T16:28:03.926Z,11.20
2022-12-22T16:30:31.177Z,11.05
2022-12-22T16:32:57.786Z,11.03
2022-12-22T16:35:25.380Z,10.92
2022-12-22T16:37:51.940Z,11.04
2022-12-22T16:40:18.774Z,11.00
2022-12-22T16:45:28.890Z,11.01
2022-12-22T16:47:55.638Z,10.86
2022-12-22T16:50:22.861Z,10.83
2022-12-22T16:52:49.798Z,10.84
2022-12-22T16:55:16.995Z,10.85
2022-12-22T16:57:43.915Z,10.72
2022-12-22T17:00:18.213Z,10.58
2022-12-22T17:02:46.130Z,10.48
2022-12-22T17:05:44.441Z,10.47
2022-12-22T17:08:16.112Z,10.61
2022-12-22T17:10:42.670Z,10.60
2022-12-22T17:13:09.283Z,10.59
2022-12-22T17:15:35.843Z,10.57
2022-12-22T17:18:03.634Z,10.62
2022-12-22T17:20:30.275Z,10.77
2022-12-22T17:22:58.744Z,10.79
2022-12-22T17:25:29.197Z,10.82
2022-12-22T17:27:55.747Z,10.87
2022-12-22T17:30:23.265Z,10.75
2022-12-22T17:32:50.044Z,10.75
2022-12-22T17:35:17.199Z,10.68
2022-12-22T17:37:44.602Z,10.77
2022-12-22T17:40:32.014Z,10.72
2022-12-22T17:42:58.913Z,10.65
2022-12-22T17:45:25.659Z,10.71
2022-12-22T17:47:52.357Z,10.82
2022-12-22T17:50:19.889Z,10.80
2022-12-22T17:52:46.781Z,10.86
2022-12-22T17:56:05.961Z,10.69
2022-12-22T17:58:13.820Z,10.86
2022-12-22T18:00:40.356Z,10.83
2022-12-22T18:03:07.054Z,10.72
2022-12-22T18:05:37.094Z,10.85
2022-12-22T18:08:03.627Z,10.90
2022-12-22T18:10:31.610Z,10.72
2022-12-22T18:12:59.430Z,10.79
2022-12-22T18:15:26.423Z,10.87
2022-12-22T18:17:53.048Z,10.90
2022-12-22T18:20:20.644Z,10.79
2022-12-22T18:22:47.221Z,10.80
2022-12-22T18:25:17.975Z,10.79
2022-12-22T18:27:44.574Z,10.84
2022-12-22T18:30:17.427Z,10.89
2022-12-22T18:32:44.034Z,10.87
2022-12-22T18:35:10.554Z,10.72
2022-12-22T18:37:37.290Z,10.79
2022-12-22T18:40:03.961Z,10.82
2022-12-22T18:42:30.518Z,10.89
2022-12-22T18:44:57.042Z,10.89
2022-12-22T18:47:23.741Z,10.91
2022-12-22T18:49:50.379Z,10.88
2022-12-22T18:52:20.682Z,10.94
2022-12-22T18:54:47.378Z,10.98
2022-12-22T18:57:14.682Z,11.02
2022-12-22T18:59:41.215Z,10.89
2022-12-22T19:02:26.849Z,10.94
2022-12-22T19:04:53.682Z,11.00
2022-12-22T19:07:21.377Z,11.01
2022-12-22T19:09:47.955Z,11.14
2022-12-22T19:12:15.289Z,11.12
2022-12-22T19:14:44.790Z,11.08
2022-12-22T19:17:19.501Z,11.07
2022-12-22T19:19:46.045Z,10.96
2022-12-22T19:22:13.669Z,11.01
2022-12-22T19:24:41.516Z,11.03
2022-12-22T19:27:15.259Z,11.06
2022-12-22T19:29:42.052Z,11.06
2022-12-22T19:32:12.540Z,11.03
2022-12-22T19:34:39.368Z,11.02
2022-12-22T19:37:05.942Z,11.14
2022-12-22T19:39:32.477Z,11.10
2022-12-22T19:41:59.195Z,11.09
2022-12-22T19:44:26.521Z,10.98
2022-12-22T19:46:53.478Z,10.93
2022-12-22T19:49:20.854Z,11.04
2022-12-22T19:51:47.696Z,10.93
2022-12-22T19:54:14.366Z,10.79
2022-12-22T19:56:41.364Z,10.78
2022-12-22T19:59:10.973Z,10.70
2022-12-22T20:01:37.673Z,10.81
2022-12-22T20:04:04.275Z,10.73
2022-12-22T20:06:30.869Z,10.68
2022-12-22T20:09:01.723Z,10.57
2022-12-22T20:11:28.270Z,10.61
2022-12-22T20:13:54.822Z,10.70
2022-12-22T20:16:21.428Z,10.59
2022-12-22T20:18:48.000Z,10.62
2022-12-22T20:21:23.652Z,10.54
2022-12-22T20:23:50.608Z,10.51
2022-12-22T20:26:21.549Z,10.50
2022-12-22T20:28:49.868Z,10.37
2022-12-22T20:31:17.061Z,10.41
2022-12-22T20:33:44.011Z,10.35
2022-12-22T20:36:26.666Z,10.33
2022-12-22T20:38:53.831Z,10.33
2022-12-22T20:41:21.074Z,10.41
2022-12-22T20:43:47.704Z,10.43
2022-12-22T20:46:24.679Z,10.41
2022-12-22T20:48:56.119Z,10.39
2022-12-22T20:51:23.620Z,10.36
2022-12-22T20:53:50.666Z,10.30
2022-12-22T20:56:17.113Z,10.30
2022-12-22T20:58:43.649Z,10.28
2022-12-22T21:01:10.200Z,10.40
2022-12-22T21:03:36.776Z,10.37
2022-12-22T21:06:06.907Z,10.37
2022-12-22T21:08:33.399Z,10.36
2022-12-22T21:11:00.827Z,10.32
2022-12-22T21:13:27.400Z,10.29
2022-12-22T21:15:54.037Z,10.44
2022-12-22T21:18:23.848Z,10.49
2022-12-22T21:20:50.668Z,10.48
2022-12-22T21:23:17.222Z,10.57
2022-12-22T21:25:46.644Z,10.48
2022-12-22T21:28:16.520Z,10.55
2022-12-22T21:30:43.105Z,10.41
2022-12-22T21:33:09.827Z,10.53
2022-12-22T21:35:36.554Z,10.53
2022-12-22T21:38:03.043Z,10.45
2022-12-22T21:40:30.568Z,10.43
2022-12-22T21:42:58.186Z,10.41
2022-12-22T21:45:26.254Z,10.43
2022-12-22T21:47:52.841Z,10.33
2022-12-22T21:50:26.544Z,10.36
2022-12-22T21:52:53.140Z,10.31
2022-12-22T21:55:21.527Z,10.30
2022-12-22T21:57:48.167Z,10.28
2022-12-22T22:00:15.591Z,10.31
2022-12-22T22:02:42.301Z,10.33
2022-12-22T22:05:14.261Z,10.34
2022-12-22T22:07:41.120Z,10.28
2022-12-22T22:10:08.144Z,10.15
2022-12-22T22:12:37.978Z,9.99
2022-12-22T22:15:05.153Z,9.94
2022-12-22T22:17:31.710Z,10.17
2022-12-22T22:20:01.187Z,10.20
2022-12-22T22:22:48.258Z,10.14
2022-12-22T22:25:15.606Z,10.13
2022-12-22T22:27:47.501Z,10.03
2022-12-22T22:30:17.916Z,10.00
2022-12-22T22:32:44.464Z,10.00
2022-12-22T22:35:11.136Z,10.03
2022-12-22T22:37:38.753Z,9.96
2022-12-22T22:40:06.539Z,9.84
2022-12-22T22:42:33.041Z,9.99
2022-12-22T22:44:59.631Z,9.85
2022-12-22T22:47:26.505Z,9.93
2022-12-22T22:49:53.185Z,9.97
2022-12-22T22:52:19.677Z,10.11
2022-12-22T22:54:46.206Z,10.00
2022-12-22T22:57:13.814Z,9.95
2022-12-22T22:59:40.314Z,10.02
2022-12-22T23:02:06.975Z,9.98
2022-12-22T23:04:33.561Z,9.97
2022-12-22T23:07:00.586Z,9.82
2022-12-22T23:09:27.162Z,9.95
2022-12-22T23:11:53.998Z,10.02
2022-12-22T23:14:21.338Z,10.02
2022-12-22T23:16:48.246Z,10.16
2022-12-22T23:19:14.894Z,9.98
2022-12-22T23:21:41.432Z,10.02
2022-12-22T23:24:08.053Z,10.12
2022-12-22T23:26:34.568Z,10.18
2022-12-22T23:29:03.560Z,10.09
2022-12-22T23:31:30.842Z,10.21
2022-12-22T23:33:57.493Z,10.15
2022-12-22T23:36:24.017Z,10.11
2022-12-22T23:38:51.819Z,10.17
2022-12-22T23:41:18.387Z,10.19
2022-12-22T23:43:44.900Z,10.25
2022-12-22T23:46:12.627Z,10.23
2022-12-22T23:48:42.053Z,10.09
2022-12-22T23:51:09.077Z,10.18
2022-12-22T23:53:35.836Z,10.19
2022-12-22T23:56:02.686Z,10.19
2022-12-22T23:58:29.214Z,10.31
